• Join FlightAware (Why Join?)
  • Login
  • US Flag 
11:51PM EST


 

Airport Tracker/Info


-or-


 

Live Flight TrackerFlight Track Log ✈ CCA4393 ✈ 11-Feb-2014 ✈ ZUCK / CKG - ZGGG / CAN

Flight Track Log - Related Links

Times and Time Zones

All times are in EST time to prevent confusion due to time zone crossing. See the CCA4393 flight status page for this flight to view local times or setup timezone preferences in your user account.

Time Position Orientation Groundspeed Altitude Reporting Facility
EST Latitude Longitude Course Direction KTS MPH feet Rate Location/Type
06:43PM 29.1574 107.2784 135° Southeast  Level Estimated
06:44PM 29.0769 107.3689 136° Southeast  Level Estimated
06:45PM 28.9963 107.4593 136° Southeast  Level Estimated
06:46PM 28.9156 107.5495 136° Southeast  Level Estimated
06:47PM 28.8349 107.6396 136° Southeast  Level Estimated
06:48PM 28.7542 107.7295 136° Southeast  Level Estimated
06:49PM 28.6733 107.8193 136° Southeast  Level Estimated
06:50PM 28.5924 107.9089 136° Southeast  Level Estimated
06:51PM 28.5115 107.9984 136° Southeast  Level Estimated
06:52PM 28.4305 108.0878 136° Southeast  Level Estimated
06:53PM 28.3494 108.1770 136° Southeast  Level Estimated
06:54PM 28.2683 108.2662 136° Southeast  Level Estimated
06:55PM 28.1871 108.3551 136° Southeast  Level Estimated
06:56PM 28.1059 108.4439 136° Southeast  Level Estimated
06:57PM 28.0246 108.5326 136° Southeast  Level Estimated
06:58PM 27.9432 108.6212 136° Southeast  Level Estimated
06:59PM 27.8618 108.7096 136° Southeast  Level Estimated
07:00PM 27.7804 108.7979 136° Southeast  Level Estimated
07:01PM 27.6989 108.8861 136° Southeast  Level Estimated
07:02PM 27.6173 108.9741 136° Southeast  Level Estimated
07:03PM 27.5357 109.0620 136° Southeast  Level Estimated
07:04PM 27.4540 109.1498 136° Southeast  Level Estimated
07:05PM 27.3722 109.2374 136° Southeast  Level Estimated
07:06PM 27.2904 109.3249 136° Southeast  Level Estimated
07:07PM 27.2086 109.4123 136° Southeast  Level Estimated
07:08PM 27.1267 109.4995 137° Southeast  Level Estimated
07:09PM 27.0447 109.5867 137° Southeast  Level Estimated
07:10PM 26.9627 109.6737 137° Southeast  Level Estimated
07:11PM 26.8807 109.7606 137° Southeast  Level Estimated
07:12PM 26.7985 109.8473 137° Southeast  Level Estimated
07:13PM 26.7164 109.9339 137° Southeast  Level Estimated
07:14PM 26.6341 110.0204 137° Southeast  Level Estimated
07:15PM 26.5519 110.1068 137° Southeast  Level Estimated
07:16PM 26.4695 110.1930 137° Southeast  Level Estimated
07:17PM 26.3872 110.2792 137° Southeast  Level Estimated
07:18PM 26.3047 110.3652 137° Southeast  Level Estimated
07:19PM 26.2223 110.4510 137° Southeast  Level Estimated
07:20PM 26.1397 110.5368 137° Southeast  Level Estimated
07:21PM 26.0571 110.6224 137° Southeast  Level Estimated
07:22PM 25.9745 110.7079 137° Southeast  Level Estimated
07:23PM 25.8918 110.7933 137° Southeast  Level Estimated
07:24PM 25.8091 110.8786 137° Southeast  Level Estimated
07:25PM 25.7263 110.9638 137° Southeast  Level Estimated
07:26PM 25.6435 111.0488 137° Southeast  Level Estimated
07:27PM 25.5606 111.1337 137° Southeast  Level Estimated
07:28PM 25.4777 111.2185 137° Southeast  Level Estimated
07:29PM 25.3947 111.3032 137° Southeast  Level Estimated
07:30PM 25.3117 111.3878 137° Southeast  Level Estimated
07:31PM 25.2286 111.4722 137° Southeast  Level Estimated
07:32PM 25.1455 111.5565 137° Southeast  Level Estimated
07:33PM 25.0623 111.6408 137° Southeast  Level Estimated
07:34PM 24.9791 111.7249 137° Southeast  Level Estimated
07:35PM 24.8958 111.8089 138° Southeast  Level Estimated
07:36PM 24.8125 111.8928 138° Southeast  Level Estimated
07:37PM 24.7292 111.9765 138° Southeast  Level Estimated
07:38PM 24.6457 112.0602 138° Southeast  Level Estimated
07:39PM 24.5623 112.1437 138° Southeast  Level Estimated
07:40PM 24.4788 112.2271 138° Southeast  Level Estimated
07:41PM 24.3953 112.3105 138° Southeast  Level Estimated
07:42PM 24.3117 112.3937 138° Southeast  Level Estimated
07:43PM 24.2280 112.4768 138° Southeast  Level Estimated
07:44PM 24.1444 112.5598 138° Southeast  Level Estimated
07:45PM 24.0606 112.6427 138° Southeast  Level Estimated
07:46PM 23.9769 112.7254 138° Southeast  Level Estimated
07:47PM 23.8930 112.8081 138° Southeast  Level Estimated
07:48PM 23.8092 112.8907 138° Southeast  Level Estimated
07:49PM 23.7253 112.9731 138° Southeast  Level Estimated
07:50PM 23.6413 113.0555 138° Southeast  Level Estimated
07:51PM 23.5574 113.1377 138° Southeast  Level Estimated
07:52PM 23.4733 113.2199 138° Southeast  Level Estimated
07:53PM 23.3924 113.2988 138° Southeast  Level Estimated
07:54PM 23.3924 113.2988 223° Southwest  Level Estimated
07:55PM 23.3924 113.2988 223° Southwest  Level Estimated
07:56PM 23.3924 113.2988 223° Southwest  Level Estimated
07:57PM 23.3924 113.2988 223° Southwest  Level Estimated
07:58PM 23.3924 113.2988 223° Southwest  Level Estimated
07:59PM 23.3924 113.2988 223° Southwest  Level Estimated
08:00PM 23.3924 113.2988 223° Southwest  Level Estimated
08:01PM 23.3924 113.2988 223° Southwest  Level Estimated
08:02PM 23.3924 113.2988 223° Southwest  Level Estimated
08:03PM 23.3924 113.2988 223° Southwest  Level Estimated
08:04PM 23.3924 113.2988 223° Southwest  Level Estimated
08:05PM 23.3924 113.2988 223° Southwest  Level Estimated
08:06PM 23.3924 113.2988 223° Southwest  Level Estimated
08:07PM 23.3924 113.2988 223° Southwest  Level Estimated
08:08PM 23.3924 113.2988 223° Southwest  Level Estimated
08:09PM 23.3924 113.2988 223° Southwest  Level Estimated